Time;durP1;ratioP1;P1;durP2;ratioP2;P2;SDS_P1;SDS_P2;PMS_P1;PMS_P2;Temp;Humidity;BMP_temperature;BMP_pressure;BME280_temperature;BME280_humidity;BME280_pressure;Samples;Min_cycle;Max_cycle;Signal;HPM_P1;HPM_P2
2021/08/19 00:00:39;;;;;;;17.57;15.60;;;16.50;99.90;;;;;;5004237;28;20187;-80
2021/08/19 00:03:05;;;;;;;16.70;14.93;;;16.50;99.90;;;;;;5006615;28;20222;-80
2021/08/19 00:05:30;;;;;;;19.37;16.50;;;16.60;99.90;;;;;;5007947;28;20545;-80
2021/08/19 00:07:56;;;;;;;16.50;14.80;;;16.60;99.90;;;;;;5023186;28;20204;-80
2021/08/19 00:10:22;;;;;;;17.83;16.10;;;16.50;99.90;;;;;;5006053;28;20262;-80
2021/08/19 00:12:47;;;;;;;16.73;14.70;;;16.60;99.90;;;;;;5006566;28;20176;-80
2021/08/19 00:15:13;;;;;;;17.43;14.67;;;16.60;99.90;;;;;;5005936;28;20195;-80
2021/08/19 00:17:38;;;;;;;16.27;14.30;;;16.60;99.90;;;;;;5022233;28;20223;-80
2021/08/19 00:20:04;;;;;;;16.90;14.23;;;16.60;99.90;;;;;;5005135;28;20179;-80
2021/08/19 00:22:31;;;;;;;15.90;14.30;;;16.60;99.90;;;;;;5003686;28;20215;-80
2021/08/19 00:24:57;;;;;;;20.47;14.13;;;16.50;99.90;;;;;;5004322;28;20654;-80
2021/08/19 00:27:23;;;;;;;16.70;14.07;;;16.50;99.90;;;;;;5004737;28;20195;-80
2021/08/19 00:29:48;;;;;;;15.50;13.80;;;16.50;99.90;;;;;;5021161;28;20260;-80
2021/08/19 00:32:14;;;;;;;15.53;13.87;;;16.50;99.90;;;;;;5021445;28;20179;-80
2021/08/19 00:34:39;;;;;;;16.30;13.30;;;16.50;99.90;;;;;;5005437;28;20246;-80
2021/08/19 00:37:05;;;;;;;16.80;13.47;;;16.50;99.90;;;;;;5004707;28;20211;-80
2021/08/19 00:39:30;;;;;;;15.40;13.47;;;16.50;99.90;;;;;;5020439;28;20237;-80
2021/08/19 00:41:57;;;;;;;14.93;13.33;;;16.50;99.90;;;;;;5020781;28;20263;-80
2021/08/19 00:44:23;;;;;;;15.27;13.43;;;16.50;99.90;;;;;;5004733;28;20258;-80
2021/08/19 00:46:48;;;;;;;17.37;14.30;;;16.50;99.90;;;;;;5004954;28;20684;-80
2021/08/19 00:49:14;;;;;;;14.93;13.33;;;16.50;99.90;;;;;;5020489;28;20201;-80
2021/08/19 00:51:40;;;;;;;15.77;14.07;;;16.50;99.90;;;;;;5003935;28;20190;-80
2021/08/19 00:54:32;;;;;;;14.93;13.10;;;16.50;99.90;;;;;;5021373;28;20784;-80
2021/08/19 00:56:59;;;;;;;15.00;13.30;;;16.50;99.90;;;;;;4999911;28;20215;-80
2021/08/19 00:59:29;;;;;;;15.10;13.43;;;16.50;99.90;;;;;;5003823;28;20230;-80
2021/08/19 01:01:55;;;;;;;16.23;12.97;;;16.50;99.90;;;;;;5003582;28;20207;-80
2021/08/19 01:04:20;;;;;;;15.03;12.93;;;16.50;99.90;;;;;;5004578;28;20179;-80
2021/08/19 01:06:46;;;;;;;16.83;13.80;;;16.50;99.90;;;;;;5003873;28;20211;-80
2021/08/19 01:09:12;;;;;;;15.97;13.27;;;16.60;99.90;;;;;;5003838;28;20190;-80
2021/08/19 01:11:39;;;;;;;15.73;13.57;;;16.60;99.90;;;;;;5003626;28;20189;-79
2021/08/19 01:14:05;;;;;;;16.83;13.03;;;16.60;99.90;;;;;;5019232;28;20186;-79
2021/08/19 01:16:31;;;;;;;16.23;13.20;;;16.60;99.90;;;;;;5002522;28;20543;-80
2021/08/19 01:18:56;;;;;;;20.10;13.63;;;16.70;99.90;;;;;;5002364;28;20191;-80
2021/08/19 01:21:22;;;;;;;16.63;13.40;;;16.70;99.90;;;;;;5002733;28;20569;-80
2021/08/19 01:23:48;;;;;;;17.47;13.97;;;16.70;99.90;;;;;;5004498;28;20187;-80
2021/08/19 01:26:15;;;;;;;16.10;13.47;;;16.70;99.90;;;;;;5004450;28;20176;-80
2021/08/19 01:28:41;;;;;;;16.30;13.93;;;16.70;99.90;;;;;;5004502;28;20184;-80
2021/08/19 01:31:07;;;;;;;16.63;14.30;;;16.80;99.90;;;;;;5019534;28;20182;-80
2021/08/19 01:33:33;;;;;;;17.50;14.40;;;16.80;99.90;;;;;;5019218;28;20176;-80
2021/08/19 01:35:58;;;;;;;17.53;13.77;;;16.80;99.90;;;;;;5003646;28;20176;-80
2021/08/19 01:38:34;;;;;;;17.87;14.63;;;16.80;99.90;;;;;;5003359;28;20568;-80
2021/08/19 01:41:00;;;;;;;19.37;15.43;;;16.80;99.90;;;;;;5019715;28;20221;-80
2021/08/19 01:43:27;;;;;;;16.73;14.93;;;16.90;99.90;;;;;;5003488;28;20203;-80
2021/08/19 01:46:02;;;;;;;18.30;16.27;;;16.90;99.90;;;;;;5004515;28;20172;-80
2021/08/19 01:48:29;;;;;;;20.93;15.60;;;16.90;99.90;;;;;;5004378;28;20290;-80
2021/08/19 01:50:55;;;;;;;20.73;16.03;;;16.90;99.90;;;;;;5003929;28;20182;-80
2021/08/19 01:53:21;;;;;;;22.13;16.73;;;16.90;99.90;;;;;;5003188;28;20599;-80
2021/08/19 01:55:47;;;;;;;19.07;15.83;;;16.90;99.90;;;;;;5019963;28;20175;-80
2021/08/19 01:58:12;;;;;;;21.83;16.63;;;16.90;99.90;;;;;;5002765;28;20577;-80
2021/08/19 02:00:38;;;;;;;19.17;16.97;;;16.90;99.90;;;;;;5018952;28;20180;-80
2021/08/19 02:03:04;;;;;;;20.43;17.13;;;16.90;99.90;;;;;;5002913;28;20206;-80
2021/08/19 02:05:30;;;;;;;18.27;16.37;;;16.90;99.90;;;;;;5003787;28;20180;-80
2021/08/19 02:07:55;;;;;;;19.80;17.43;;;16.80;99.90;;;;;;5003239;28;20199;-80
2021/08/19 02:10:21;;;;;;;22.17;16.43;;;16.80;99.90;;;;;;5019130;28;20718;-80
2021/08/19 02:12:46;;;;;;;22.27;16.70;;;16.90;99.90;;;;;;5019687;28;20180;-80
2021/08/19 02:15:12;;;;;;;20.27;17.10;;;16.90;99.90;;;;;;5019981;28;20807;-80
2021/08/19 02:17:38;;;;;;;19.03;16.43;;;16.80;99.90;;;;;;5019865;28;20196;-80
2021/08/19 02:20:04;;;;;;;21.20;17.27;;;16.80;99.90;;;;;;5018317;28;20185;-80
2021/08/19 02:22:30;;;;;;;19.97;17.80;;;16.80;99.90;;;;;;5002964;28;20210;-80
2021/08/19 02:24:55;;;;;;;24.70;17.47;;;16.80;99.90;;;;;;5003020;28;20653;-79
2021/08/19 02:27:21;;;;;;;20.70;16.97;;;16.80;99.90;;;;;;5003777;28;20611;-79
2021/08/19 02:29:48;;;;;;;20.27;17.27;;;16.80;99.90;;;;;;5003638;28;20673;-79
2021/08/19 02:32:14;;;;;;;20.37;17.23;;;16.80;99.90;;;;;;5019497;28;20229;-80
2021/08/19 02:34:39;;;;;;;22.27;17.80;;;16.80;99.90;;;;;;5003603;28;20255;-80
2021/08/19 02:37:05;;;;;;;20.20;17.50;;;16.80;99.90;;;;;;5020348;28;20231;-80
2021/08/19 02:39:30;;;;;;;21.77;18.70;;;16.80;99.90;;;;;;5002636;28;20184;-80
2021/08/19 02:41:56;;;;;;;23.00;18.43;;;16.80;99.90;;;;;;5003934;28;20300;-80
2021/08/19 02:44:22;;;;;;;25.37;18.53;;;16.80;99.90;;;;;;5003175;28;20195;-80
2021/08/19 02:46:47;;;;;;;22.67;18.43;;;16.80;99.90;;;;;;5005388;28;20188;-80
2021/08/19 02:49:13;;;;;;;20.73;18.20;;;16.80;99.90;;;;;;5006691;28;20175;-80
2021/08/19 02:51:38;;;;;;;22.83;18.93;;;16.70;99.90;;;;;;5007439;28;20244;-80
2021/08/19 02:54:04;;;;;;;24.30;19.67;;;16.70;99.90;;;;;;5007361;28;20184;-80
2021/08/19 02:56:29;;;;;;;22.73;19.07;;;16.60;99.90;;;;;;5006264;28;20637;-80
2021/08/19 02:58:55;;;;;;;20.87;18.57;;;16.60;99.90;;;;;;5006758;28;20218;-80
2021/08/19 03:01:20;;;;;;;24.37;19.00;;;16.50;99.90;;;;;;5006770;28;20206;-80
2021/08/19 03:03:46;;;;;;;24.37;20.63;;;16.50;99.90;;;;;;5008124;28;20255;-79
2021/08/19 03:06:11;;;;;;;24.43;18.77;;;16.40;99.90;;;;;;5006705;28;20203;-80
2021/08/19 03:08:37;;;;;;;21.97;18.40;;;16.40;99.90;;;;;;5006863;28;20179;-80
2021/08/19 03:11:03;;;;;;;22.57;18.60;;;16.30;99.90;;;;;;5008121;28;20548;-80
2021/08/19 03:13:28;;;;;;;19.90;17.20;;;16.30;99.90;;;;;;5006895;28;20560;-80
2021/08/19 03:15:54;;;;;;;23.17;18.27;;;16.30;99.90;;;;;;5007262;28;20187;-80
2021/08/19 03:18:19;;;;;;;23.57;17.73;;;16.20;99.90;;;;;;5006907;28;20263;-80
2021/08/19 03:20:45;;;;;;;22.20;18.10;;;16.20;99.90;;;;;;5006318;28;20205;-80
2021/08/19 03:23:11;;;;;;;21.77;18.20;;;16.10;99.90;;;;;;5006649;28;20579;-80
2021/08/19 03:25:36;;;;;;;23.57;18.43;;;16.10;99.90;;;;;;5007008;28;20183;-79
2021/08/19 03:28:04;;;;;;;20.97;18.53;;;16.10;99.90;;;;;;5007461;28;20200;-80
2021/08/19 03:30:30;;;;;;;20.40;18.30;;;16.00;99.90;;;;;;5007688;28;20214;-79
2021/08/19 03:32:56;;;;;;;24.20;19.33;;;16.10;99.90;;;;;;5023618;28;20172;-80
2021/08/19 03:35:22;;;;;;;23.97;19.00;;;16.00;99.90;;;;;;5007914;28;20184;-80
2021/08/19 03:37:47;;;;;;;22.43;18.87;;;16.00;99.90;;;;;;5023407;28;20199;-80
2021/08/19 03:40:13;;;;;;;22.47;20.03;;;16.00;99.90;;;;;;5006952;28;20626;-80
2021/08/19 03:42:39;;;;;;;24.43;20.03;;;16.00;99.90;;;;;;5006102;28;20195;-79
2021/08/19 03:45:06;;;;;;;24.03;19.30;;;15.90;99.90;;;;;;5007046;28;20230;-80
2021/08/19 03:47:31;;;;;;;24.83;19.53;;;15.90;99.90;;;;;;5008096;28;20200;-80
2021/08/19 03:49:57;;;;;;;25.17;19.80;;;15.90;99.90;;;;;;5006855;28;20237;-79
2021/08/19 03:52:23;;;;;;;23.83;19.00;;;15.90;99.90;;;;;;5007082;28;20179;-80
2021/08/19 03:54:50;;;;;;;21.70;18.60;;;15.90;99.90;;;;;;5021982;28;20259;-80
2021/08/19 03:57:15;;;;;;;23.33;18.70;;;15.90;99.90;;;;;;5005753;28;20206;-80
2021/08/19 03:59:41;;;;;;;23.83;19.83;;;15.90;99.90;;;;;;5021836;28;20259;-79
2021/08/19 04:02:06;;;;;;;24.67;19.70;;;16.00;99.90;;;;;;5004388;28;20258;-80
2021/08/19 04:04:32;;;;;;;23.07;19.67;;;15.90;99.90;;;;;;5022236;28;20172;-80
2021/08/19 04:06:58;;;;;;;24.07;19.83;;;15.90;99.90;;;;;;5023225;28;20534;-80
2021/08/19 04:09:23;;;;;;;26.43;19.97;;;15.90;99.90;;;;;;5005630;28;20248;-80
2021/08/19 04:11:49;;;;;;;24.37;19.87;;;15.90;99.90;;;;;;5006599;28;20179;-80
2021/08/19 04:14:14;;;;;;;23.97;19.53;;;16.00;99.90;;;;;;5006461;28;20194;-80
2021/08/19 04:16:40;;;;;;;29.00;21.97;;;16.00;99.90;;;;;;5005617;28;20214;-80
2021/08/19 04:19:05;;;;;;;25.20;20.73;;;16.00;99.90;;;;;;5005062;28;20184;-80
2021/08/19 04:21:31;;;;;;;25.73;20.90;;;16.00;99.90;;;;;;5021639;28;20222;-80
2021/08/19 04:23:56;;;;;;;27.43;21.73;;;16.00;99.90;;;;;;5005491;28;20180;-80
2021/08/19 04:26:22;;;;;;;24.30;20.53;;;16.10;99.90;;;;;;5006292;28;20751;-80
2021/08/19 04:28:48;;;;;;;27.57;21.40;;;16.10;99.90;;;;;;5004963;28;20203;-80
2021/08/19 04:31:13;;;;;;;25.07;21.33;;;16.10;99.90;;;;;;5005180;28;20225;-79
2021/08/19 04:33:39;;;;;;;25.50;20.33;;;16.20;99.90;;;;;;5020563;28;20176;-80
2021/08/19 04:36:04;;;;;;;28.87;21.37;;;16.20;99.90;;;;;;5007234;28;20229;-80
2021/08/19 04:38:32;;;;;;;27.00;20.83;;;16.20;99.90;;;;;;5004497;28;20195;-80
2021/08/19 04:40:58;;;;;;;23.87;19.93;;;16.20;99.90;;;;;;4988299;28;20175;-80
2021/08/19 04:43:23;;;;;;;25.27;21.30;;;16.20;99.90;;;;;;5003440;28;20214;-80
2021/08/19 04:45:49;;;;;;;25.93;19.87;;;16.30;99.90;;;;;;4987477;28;20175;-79
2021/08/19 04:48:15;;;;;;;27.57;21.43;;;16.20;99.90;;;;;;5002006;28;20199;-79
2021/08/19 04:50:40;;;;;;;25.20;20.77;;;16.30;99.90;;;;;;5002107;28;20194;-78
2021/08/19 04:53:06;;;;;;;27.67;21.30;;;16.30;99.90;;;;;;4985129;28;20183;-79
2021/08/19 04:55:31;;;;;;;24.90;20.20;;;16.40;99.90;;;;;;4985309;28;20183;-79
2021/08/19 04:57:57;;;;;;;27.30;21.07;;;16.40;99.90;;;;;;5001076;28;20685;-79
2021/08/19 05:00:23;;;;;;;27.70;20.87;;;16.50;99.90;;;;;;4984752;28;20179;-79
2021/08/19 05:02:48;;;;;;;23.23;18.87;;;16.50;99.90;;;;;;5001943;28;20203;-79
2021/08/19 05:05:14;;;;;;;22.70;19.20;;;16.50;99.90;;;;;;4985122;28;20190;-80
2021/08/19 05:07:39;;;;;;;24.63;19.43;;;16.60;99.90;;;;;;5036893;28;20199;-80
2021/08/19 05:10:06;;;;;;;22.30;17.80;;;16.60;99.90;;;;;;5022194;28;20213;-79
2021/08/19 05:12:31;;;;;;;23.80;17.37;;;16.60;99.90;;;;;;5032113;22;20223;-81
2021/08/19 05:14:57;;;;;;;22.70;17.33;;;16.70;99.90;;;;;;4998742;28;20171;-81
2021/08/19 05:17:22;;;;;;;19.60;15.43;;;16.80;99.90;;;;;;4999580;28;20171;-77
2021/08/19 05:19:50;;;;;;;18.90;14.83;;;16.80;99.90;;;;;;4972462;28;20717;-83
2021/08/19 05:22:16;;;;;;;20.40;14.13;;;16.80;99.90;;;;;;4980748;28;20728;-84
2021/08/19 05:24:42;;;;;;;18.77;14.00;;;16.90;99.90;;;;;;4963690;28;20172;-83
2021/08/19 05:27:09;;;;;;;16.93;13.10;;;16.90;99.90;;;;;;4962388;28;20719;-83
2021/08/19 05:29:36;;;;;;;16.70;12.07;;;16.90;99.90;;;;;;4978207;28;20172;-82
2021/08/19 05:32:04;;;;;;;16.23;11.77;;;17.00;99.90;;;;;;4979613;28;20195;-80
2021/08/19 05:34:32;;;;;;;15.53;11.53;;;17.10;99.90;;;;;;4992113;28;20191;-79
2021/08/19 05:36:58;;;;;;;16.43;12.67;;;17.00;99.90;;;;;;4980013;28;20180;-78
2021/08/19 05:39:24;;;;;;;16.93;12.57;;;17.10;99.90;;;;;;4978481;28;20270;-78
2021/08/19 05:41:50;;;;;;;14.20;11.57;;;17.10;99.90;;;;;;4995636;28;20200;-78
2021/08/19 05:44:17;;;;;;;16.37;12.07;;;17.10;99.90;;;;;;4978876;28;20322;-77
2021/08/19 05:46:42;;;;;;;17.63;12.97;;;17.10;99.90;;;;;;4978137;28;20227;-77
2021/08/19 05:49:08;;;;;;;18.93;12.77;;;17.10;99.90;;;;;;4978120;28;20192;-77
2021/08/19 05:51:34;;;;;;;16.77;12.93;;;17.10;99.90;;;;;;4991435;28;20180;-77
2021/08/19 05:54:00;;;;;;;17.57;13.63;;;17.20;99.90;;;;;;4959238;28;20254;-77
2021/08/19 05:56:26;;;;;;;16.03;13.03;;;17.20;99.90;;;;;;4959382;28;20200;-80
2021/08/19 05:58:52;;;;;;;19.23;12.40;;;17.20;99.90;;;;;;4961006;28;20184;-85
2021/08/19 06:01:18;;;;;;;17.20;13.33;;;17.20;99.90;;;;;;4979308;28;20172;-86
2021/08/19 06:03:46;;;;;;;17.50;12.97;;;17.20;99.90;;;;;;4964360;28;20200;-84
2021/08/19 06:06:13;;;;;;;16.37;13.50;;;17.20;99.90;;;;;;4978069;28;20545;-85
2021/08/19 06:08:39;;;;;;;18.60;14.00;;;17.20;99.90;;;;;;4962120;28;20188;-83
2021/08/19 06:11:05;;;;;;;17.80;14.37;;;17.20;99.90;;;;;;4979005;28;20176;-84
2021/08/19 06:13:31;;;;;;;20.23;14.63;;;17.20;99.90;;;;;;4979873;28;20227;-85
2021/08/19 06:15:57;;;;;;;20.23;13.63;;;17.20;99.90;;;;;;4979826;28;20187;-86
2021/08/19 06:18:23;;;;;;;18.33;14.07;;;17.20;99.90;;;;;;4962407;28;20184;-85
2021/08/19 06:20:49;;;;;;;18.17;14.77;;;17.30;99.90;;;;;;4981330;28;20673;-86
2021/08/19 06:23:14;;;;;;;20.17;14.60;;;17.30;99.90;;;;;;4967088;28;20281;-84
2021/08/19 06:25:40;;;;;;;21.47;15.73;;;17.40;99.90;;;;;;4965989;28;20183;-84
2021/08/19 06:28:06;;;;;;;20.20;15.60;;;17.40;99.90;;;;;;4965083;28;20227;-82
2021/08/19 06:30:32;;;;;;;19.97;15.00;;;17.40;99.90;;;;;;4981219;28;20168;-82
2021/08/19 06:32:59;;;;;;;18.27;14.33;;;17.50;99.90;;;;;;4981343;28;20196;-81
2021/08/19 06:35:25;;;;;;;19.60;14.43;;;17.50;99.90;;;;;;4979834;28;20184;-82
2021/08/19 06:37:50;;;;;;;20.70;14.60;;;17.50;99.90;;;;;;4963740;28;20280;-81
2021/08/19 06:40:16;;;;;;;17.90;13.00;;;17.50;99.90;;;;;;4963651;28;20176;-82
2021/08/19 06:42:41;;;;;;;15.83;12.33;;;17.40;99.90;;;;;;4964056;28;20595;-84
2021/08/19 06:45:08;;;;;;;16.70;11.57;;;17.40;99.90;;;;;;4963838;28;20183;-79
2021/08/19 06:47:34;;;;;;;13.70;10.90;;;17.40;99.90;;;;;;4962815;28;20207;-77
2021/08/19 06:50:00;;;;;;;16.37;11.97;;;17.40;99.90;;;;;;4978387;28;20643;-78
2021/08/19 06:52:26;;;;;;;13.70;10.33;;;17.40;99.90;;;;;;4978582;28;20211;-78
2021/08/19 06:54:52;;;;;;;15.13;10.83;;;17.40;99.90;;;;;;4994670;28;20184;-78
2021/08/19 06:57:19;;;;;;;15.07;11.50;;;17.40;99.90;;;;;;4962661;28;20300;-78
2021/08/19 06:59:44;;;;;;;14.20;11.47;;;17.30;99.90;;;;;;4994507;28;20630;-78
2021/08/19 07:02:10;;;;;;;13.63;11.00;;;17.40;99.90;;;;;;4994699;28;20280;-78
2021/08/19 07:04:36;;;;;;;14.10;10.63;;;17.40;99.90;;;;;;4995087;28;20187;-77
2021/08/19 07:07:02;;;;;;;13.37;11.33;;;17.30;99.90;;;;;;4963003;28;20271;-78
2021/08/19 07:09:30;;;;;;;15.60;11.10;;;17.40;99.90;;;;;;4961751;28;20186;-77
2021/08/19 07:11:55;;;;;;;14.40;11.60;;;17.30;99.90;;;;;;4962589;28;20191;-77
2021/08/19 07:14:21;;;;;;;13.47;11.17;;;17.30;99.90;;;;;;4978020;28;20246;-77
2021/08/19 07:16:47;;;;;;;13.53;10.70;;;17.30;99.90;;;;;;4962146;28;20200;-77
2021/08/19 07:19:14;;;;;;;15.27;11.13;;;17.30;99.90;;;;;;4994220;28;20176;-77
2021/08/19 07:21:40;;;;;;;13.63;11.07;;;17.30;99.90;;;;;;4978232;28;20214;-78
2021/08/19 07:24:05;;;;;;;13.57;11.27;;;17.40;99.90;;;;;;4961843;28;20208;-79
2021/08/19 07:26:32;;;;;;;13.60;10.97;;;17.30;99.90;;;;;;4978495;28;20232;-77
2021/08/19 07:28:57;;;;;;;15.67;11.70;;;17.40;99.90;;;;;;4962169;28;20579;-78
2021/08/19 07:31:24;;;;;;;16.00;11.83;;;17.30;99.90;;;;;;4994010;28;20173;-78
2021/08/19 07:33:50;;;;;;;15.50;11.80;;;17.30;99.90;;;;;;4978502;28;20211;-77
2021/08/19 07:36:15;;;;;;;15.00;12.47;;;17.20;99.90;;;;;;4978047;28;20231;-77
2021/08/19 07:38:41;;;;;;;13.43;10.70;;;17.10;99.90;;;;;;4961319;28;20267;-77
2021/08/19 07:41:07;;;;;;;15.10;11.10;;;16.90;99.90;;;;;;4961907;28;20556;-78
2021/08/19 07:43:33;;;;;;;17.10;12.07;;;16.70;99.90;;;;;;4961780;28;20216;-77
2021/08/19 07:45:59;;;;;;;14.53;11.20;;;16.70;99.90;;;;;;4961567;28;20635;-77
2021/08/19 07:48:25;;;;;;;14.80;11.03;;;16.60;99.90;;;;;;4993697;28;20239;-77
2021/08/19 07:50:51;;;;;;;13.67;10.80;;;16.60;99.90;;;;;;4961765;28;20188;-77
2021/08/19 07:53:17;;;;;;;16.70;10.93;;;16.50;99.90;;;;;;4961177;28;20202;-77
2021/08/19 07:55:43;;;;;;;14.67;10.80;;;16.50;99.90;;;;;;4977545;28;20184;-77
2021/08/19 07:58:09;;;;;;;15.67;11.87;;;16.50;99.90;;;;;;4993927;28;20559;-77
2021/08/19 08:00:37;;;;;;;14.10;11.00;;;16.50;99.90;;;;;;4961464;28;20192;-77
2021/08/19 08:03:03;;;;;;;12.67;10.50;;;16.50;99.90;;;;;;4995463;28;20215;-77
2021/08/19 08:05:30;;;;;;;15.87;11.53;;;16.50;99.90;;;;;;4979298;28;20173;-78
2021/08/19 08:08:07;;;;;;;14.00;11.43;;;16.50;99.90;;;;;;4963628;28;20208;-78
2021/08/19 08:10:35;;;;;;;15.30;11.27;;;16.50;99.90;;;;;;4963427;28;20172;-78
2021/08/19 08:13:00;;;;;;;14.77;11.10;;;16.50;99.90;;;;;;4963145;28;20693;-77
2021/08/19 08:15:26;;;;;;;17.23;11.90;;;16.50;99.90;;;;;;4963620;28;20669;-79
2021/08/19 08:17:52;;;;;;;15.07;10.93;;;16.50;99.90;;;;;;4979852;28;20176;-79
2021/08/19 08:20:18;;;;;;;17.27;12.33;;;16.50;99.90;;;;;;4963051;28;20199;-78
2021/08/19 08:22:45;;;;;;;17.67;12.53;;;16.50;99.90;;;;;;4962732;28;20208;-78
2021/08/19 08:25:11;;;;;;;16.43;12.37;;;16.60;99.90;;;;;;4963190;28;20183;-80
2021/08/19 08:27:42;;;;;;;19.17;14.03;;;16.60;99.90;;;;;;4979277;28;20183;-77
2021/08/19 08:30:09;;;;;;;19.43;13.33;;;16.70;99.90;;;;;;4962662;28;20172;-78
2021/08/19 08:32:36;;;;;;;19.17;14.63;;;16.70;99.90;;;;;;4963098;28;20298;-77
2021/08/19 08:35:02;;;;;;;21.20;14.80;;;16.70;99.90;;;;;;4979316;28;20183;-78
2021/08/19 08:37:29;;;;;;;24.17;16.20;;;16.70;99.90;;;;;;4994762;28;20188;-77
2021/08/19 08:39:55;;;;;;;22.47;16.07;;;16.70;99.90;;;;;;4977846;28;20173;-77
2021/08/19 08:42:20;;;;;;;23.80;16.83;;;16.70;99.90;;;;;;4977602;28;20265;-77
2021/08/19 08:44:46;;;;;;;24.33;17.97;;;16.80;99.90;;;;;;4961991;28;20184;-77
2021/08/19 08:47:13;;;;;;;25.53;17.70;;;16.90;99.90;;;;;;4978611;28;20187;-77
2021/08/19 08:49:40;;;;;;;24.83;17.80;;;17.00;99.90;;;;;;4979249;28;20177;-78
2021/08/19 08:52:06;;;;;;;26.03;18.20;;;17.00;99.90;;;;;;4963668;28;20561;-80
2021/08/19 08:54:34;;;;;;;27.67;19.37;;;17.00;99.90;;;;;;4962664;28;20635;-77
2021/08/19 08:56:59;;;;;;;27.53;19.13;;;17.10;99.90;;;;;;4995538;28;20599;-78
2021/08/19 08:59:25;;;;;;;26.77;20.43;;;17.00;99.90;;;;;;4999723;28;20203;-77
2021/08/19 09:01:53;;;;;;;27.53;20.13;;;17.00;99.90;;;;;;4972300;28;20262;-77
2021/08/19 09:04:19;;;;;;;30.13;20.27;;;17.00;99.90;;;;;;4985982;28;20200;-77
2021/08/19 09:06:45;;;;;;;28.47;21.10;;;17.00;99.90;;;;;;4985178;28;20176;-77
2021/08/19 09:09:19;;;;;;;31.63;22.00;;;17.00;99.90;;;;;;4987052;28;20181;-77
2021/08/19 09:11:47;;;;;;;30.53;22.20;;;17.00;99.90;;;;;;4987098;28;20171;-77
2021/08/19 09:14:20;;;;;;;35.37;22.77;;;17.00;99.90;;;;;;4972240;28;20235;-77
2021/08/19 09:16:47;;;;;;;32.60;23.40;;;17.10;99.90;;;;;;4990598;28;20180;-77
2021/08/19 09:19:18;;;;;;;33.90;22.87;;;17.10;99.90;;;;;;4971963;28;20202;-77
2021/08/19 09:21:47;;;;;;;32.87;23.43;;;17.10;99.90;;;;;;4988032;28;20196;-77
2021/08/19 09:24:13;;;;;;;34.67;23.87;;;17.10;99.90;;;;;;5002969;28;20199;-76
2021/08/19 09:26:38;;;;;;;35.50;24.90;;;17.10;99.90;;;;;;5003029;28;20187;-77
2021/08/19 09:29:18;;;;;;;34.40;23.60;;;17.10;99.90;;;;;;5003601;28;20176;-77
2021/08/19 09:31:43;;;;;;;33.53;23.97;;;17.20;99.90;;;;;;5004669;28;20223;-77
2021/08/19 09:34:10;;;;;;;35.97;24.07;;;17.20;99.90;;;;;;4983405;28;20200;-77
2021/08/19 09:36:37;;;;;;;33.50;24.30;;;17.20;99.90;;;;;;4983632;28;20180;-77
2021/08/19 09:39:05;;;;;;;34.73;23.70;;;17.30;99.90;;;;;;4984020;28;20701;-77
2021/08/19 09:41:30;;;;;;;34.53;24.57;;;17.30;99.90;;;;;;5000546;28;20176;-77
2021/08/19 09:43:56;;;;;;;34.80;24.77;;;17.30;99.90;;;;;;4967599;28;20208;-77
2021/08/19 09:46:31;;;;;;;33.97;24.37;;;17.30;99.90;;;;;;4967135;28;20555;-77
2021/08/19 09:49:00;;;;;;;33.13;24.20;;;17.30;99.90;;;;;;4999180;28;20542;-77
2021/08/19 09:51:26;;;;;;;32.30;24.00;;;17.30;99.90;;;;;;4983400;28;20580;-77
2021/08/19 09:53:54;;;;;;;32.70;24.07;;;17.30;99.90;;;;;;4965969;28;20215;-77
2021/08/19 09:56:30;;;;;;;34.00;24.17;;;17.30;99.90;;;;;;4970458;28;20219;-77
2021/08/19 09:59:18;;;;;;;32.70;23.03;;;17.30;99.90;;;;;;4986787;28;20263;-77
2021/08/19 10:01:47;;;;;;;32.10;24.73;;;17.40;99.90;;;;;;5002004;28;20266;-77
2021/08/19 10:04:13;;;;;;;31.83;23.53;;;17.40;99.90;;;;;;4986536;28;20212;-77
2021/08/19 10:06:39;;;;;;;32.37;23.10;;;17.40;99.90;;;;;;4985059;28;20256;-77
2021/08/19 10:09:05;;;;;;;32.10;23.53;;;17.40;99.90;;;;;;4978899;28;20632;-77
2021/08/19 10:11:32;;;;;;;30.90;21.90;;;17.50;99.90;;;;;;4995004;28;20176;-77
2021/08/19 10:13:58;;;;;;;30.47;23.23;;;17.50;99.90;;;;;;4978815;28;20765;-77
2021/08/19 10:16:23;;;;;;;30.97;22.63;;;17.50;99.90;;;;;;4978889;28;20172;-77
2021/08/19 10:18:49;;;;;;;33.30;23.10;;;17.50;99.90;;;;;;4962486;28;20275;-77
2021/08/19 10:21:16;;;;;;;32.00;21.47;;;17.50;99.90;;;;;;4978764;28;20512;-77
2021/08/19 10:23:46;;;;;;;29.57;21.93;;;17.50;99.90;;;;;;4978708;28;20665;-77
2021/08/19 10:26:12;;;;;;;31.70;22.17;;;17.50;99.90;;;;;;4979364;28;20582;-77
2021/08/19 10:28:46;;;;;;;29.70;22.07;;;17.50;99.90;;;;;;4978649;28;20183;-77
2021/08/19 10:31:12;;;;;;;29.83;21.67;;;17.50;99.90;;;;;;4994816;28;20181;-77
2021/08/19 10:33:38;;;;;;;30.17;21.37;;;17.60;99.90;;;;;;4994495;28;20285;-77
2021/08/19 10:36:10;;;;;;;27.87;21.00;;;17.70;99.90;;;;;;4994558;28;20184;-77
2021/08/19 10:38:36;;;;;;;29.07;20.57;;;17.70;99.90;;;;;;4995744;28;20264;-77
2021/08/19 10:41:02;;;;;;;30.20;20.33;;;17.80;99.90;;;;;;4978496;28;20176;-77
2021/08/19 10:43:34;;;;;;;26.43;19.43;;;17.80;99.90;;;;;;4978332;28;20231;-77
2021/08/19 10:46:08;;;;;;;25.37;20.20;;;17.80;99.90;;;;;;4994783;28;20239;-77
2021/08/19 10:48:53;;;;;;;25.67;20.07;;;17.90;99.90;;;;;;4978543;28;20172;-77
2021/08/19 10:51:19;;;;;;;25.87;19.70;;;17.90;99.90;;;;;;4962596;28;20176;-77
2021/08/19 10:53:46;;;;;;;24.73;18.23;;;18.00;99.90;;;;;;4978236;28;20204;-77
2021/08/19 10:56:11;;;;;;;30.00;19.37;;;18.00;99.90;;;;;;4978201;28;20187;-77
2021/08/19 10:58:38;;;;;;;23.60;18.80;;;18.10;99.90;;;;;;4961942;28;20187;-77
2021/08/19 11:01:13;;;;;;;24.30;19.13;;;18.10;99.90;;;;;;4978120;28;20640;-77
2021/08/19 11:03:38;;;;;;;22.90;18.17;;;18.20;99.90;;;;;;4994017;28;20215;-77
2021/08/19 11:06:05;;;;;;;26.90;18.57;;;18.20;99.90;;;;;;4993262;28;20187;-77
2021/08/19 11:08:43;;;;;;;21.90;18.13;;;18.10;99.90;;;;;;4961792;28;20180;-77
2021/08/19 11:11:10;;;;;;;24.60;19.47;;;18.20;99.90;;;;;;4993941;28;20179;-77
2021/08/19 11:13:36;;;;;;;27.10;18.43;;;18.10;99.90;;;;;;4990184;23;20232;-77
2021/08/19 11:16:12;;;;;;;27.97;18.40;;;18.10;99.90;;;;;;4978142;28;20180;-77
2021/08/19 11:18:39;;;;;;;24.57;18.77;;;18.10;99.90;;;;;;4993669;28;20175;-77
2021/08/19 11:21:06;;;;;;;24.50;19.20;;;18.10;99.90;;;;;;4994992;28;20271;-77
2021/08/19 11:23:42;;;;;;;29.30;19.40;;;18.10;99.90;;;;;;4990168;28;20220;-77
2021/08/19 11:26:19;;;;;;;22.10;18.13;;;18.00;99.90;;;;;;4974227;28;20173;-77
2021/08/19 11:28:47;;;;;;;27.23;18.63;;;17.90;99.90;;;;;;4974147;28;20185;-78
2021/08/19 11:31:17;;;;;;;24.27;18.77;;;17.90;99.90;;;;;;4974575;28;20185;-77
2021/08/19 11:33:44;;;;;;;24.77;18.77;;;17.90;99.90;;;;;;4990440;28;20197;-77
2021/08/19 11:36:10;;;;;;;24.10;19.23;;;17.90;99.90;;;;;;4974084;28;20185;-77
2021/08/19 11:38:36;;;;;;;26.23;17.97;;;17.90;99.90;;;;;;4975391;28;20197;-78
2021/08/19 11:41:21;;;;;;;24.13;18.23;;;17.90;99.90;;;;;;4991726;28;20199;-78
2021/08/19 11:43:47;;;;;;;22.30;18.20;;;17.90;99.90;;;;;;4991035;28;20718;-77
2021/08/19 11:46:16;;;;;;;24.17;17.83;;;17.90;99.90;;;;;;4973842;28;20188;-77
2021/08/19 11:48:58;;;;;;;21.17;17.47;;;17.90;99.90;;;;;;4990738;28;20774;-78
2021/08/19 11:51:34;;;;;;;26.37;18.73;;;17.90;99.90;;;;;;4991424;28;20235;-77
2021/08/19 11:54:13;;;;;;;25.13;18.33;;;17.80;99.90;;;;;;4989506;28;20819;-77
2021/08/19 11:56:44;;;;;;;23.53;18.30;;;17.80;99.90;;;;;;4973005;28;20176;-77
2021/08/19 11:59:11;;;;;;;23.47;18.73;;;17.80;99.90;;;;;;4969932;28;20243;-77
2021/08/19 12:01:38;;;;;;;24.43;18.87;;;17.90;99.90;;;;;;4974455;28;20184;-77
2021/08/19 12:04:04;;;;;;;25.10;19.13;;;18.00;99.90;;;;;;4970730;28;20605;-77
2021/08/19 12:06:32;;;;;;;24.50;18.63;;;18.10;99.90;;;;;;4990285;28;20188;-77
2021/08/19 12:09:08;;;;;;;22.87;18.57;;;18.20;99.90;;;;;;4965496;28;20531;-77
2021/08/19 12:11:41;;;;;;;24.00;18.23;;;18.30;99.90;;;;;;4974012;28;20582;-78
2021/08/19 12:14:08;;;;;;;22.50;17.40;;;18.40;99.90;;;;;;4957589;28;20287;-77
2021/08/19 12:16:33;;;;;;;21.37;15.67;;;18.40;99.90;;;;;;4989551;28;20169;-77
2021/08/19 12:19:09;;;;;;;20.60;16.13;;;18.30;99.90;;;;;;4985901;28;20549;-77
2021/08/19 12:21:37;;;;;;;22.67;16.80;;;18.30;99.90;;;;;;4982730;28;20172;-77
2021/08/19 12:24:17;;;;;;;22.73;17.37;;;18.20;99.90;;;;;;4989163;28;20192;-77
2021/08/19 12:26:42;;;;;;;19.03;16.03;;;18.20;99.90;;;;;;4965093;28;20307;-77